createdAt,value
2018-08-16T00:01:45.621Z,94611.89
2018-08-16T00:04:14.299Z,94615.84
2018-08-16T00:06:43.076Z,94614.70
2018-08-16T00:09:11.811Z,94618.08
2018-08-16T00:11:40.586Z,94606.97
2018-08-16T00:14:09.345Z,94611.89
2018-08-16T00:16:38.073Z,94604.60
2018-08-16T00:19:06.928Z,94602.84
2018-08-16T00:21:35.611Z,94604.11
2018-08-16T00:24:04.304Z,94606.77
2018-08-16T00:26:32.963Z,94605.19
2018-08-16T00:29:01.648Z,94606.27
2018-08-16T00:31:30.338Z,94606.22
2018-08-16T00:33:59.076Z,94608.33
2018-08-16T00:36:27.799Z,94623.05
2018-08-16T00:38:56.467Z,94619.39
2018-08-16T00:41:25.337Z,94621.15
2018-08-16T00:43:54.080Z,94614.67
2018-08-16T00:46:22.808Z,94614.30
2018-08-16T00:48:51.615Z,94618.25
2018-08-16T00:51:20.272Z,94620.83
2018-08-16T00:53:48.991Z,94609.11
2018-08-16T00:56:18.865Z,94615.14
2018-08-16T00:58:47.475Z,94613.17
2018-08-16T01:01:16.122Z,94609.63
2018-08-16T01:03:44.768Z,94619.58
2018-08-16T01:06:13.472Z,94615.98
2018-08-16T01:08:42.132Z,94619.64
2018-08-16T01:11:12.278Z,94615.38
2018-08-16T01:13:41.195Z,94625.45
2018-08-16T01:16:09.870Z,94618.48
2018-08-16T01:18:38.561Z,94623.02
2018-08-16T01:21:07.379Z,94619.26
2018-08-16T01:23:36.077Z,94619.55
2018-08-16T01:26:04.854Z,94612.73
2018-08-16T01:28:33.595Z,94614.30
2018-08-16T01:31:02.303Z,94612.13
2018-08-16T01:33:31.254Z,94616.50
2018-08-16T01:35:59.975Z,94619.06
2018-08-16T01:38:28.696Z,94615.05
2018-08-16T01:40:57.427Z,94612.48
2018-08-16T01:43:26.143Z,94610.58
2018-08-16T01:45:54.865Z,94612.86
2018-08-16T01:48:23.575Z,94611.24
2018-08-16T01:50:52.220Z,94613.61
2018-08-16T01:53:20.918Z,94617.12
2018-08-16T01:55:49.603Z,94604.20
2018-08-16T01:58:18.346Z,94610.84
2018-08-16T02:00:47.048Z,94606.47
2018-08-16T02:03:15.838Z,94609.98
2018-08-16T02:05:44.595Z,94616.56
2018-08-16T02:08:13.300Z,94618.47
2018-08-16T02:10:42.144Z,94623.66
2018-08-16T02:13:10.911Z,94620.67
2018-08-16T02:15:39.615Z,94620.07
2018-08-16T02:18:08.398Z,94613.09
2018-08-16T02:20:37.174Z,94620.91
2018-08-16T02:23:05.946Z,94628.42
2018-08-16T02:25:34.648Z,94619.94
2018-08-16T02:28:03.403Z,94627.20
2018-08-16T02:30:32.122Z,94621.98
2018-08-16T02:33:00.911Z,94624.47
2018-08-16T02:35:29.601Z,94628.81
2018-08-16T02:37:58.317Z,94630.39
2018-08-16T02:40:26.988Z,94628.14
2018-08-16T02:42:55.704Z,94625.52
2018-08-16T02:45:24.417Z,94624.39
2018-08-16T02:47:53.118Z,94626.23
2018-08-16T02:50:21.835Z,94626.05
2018-08-16T02:52:51.046Z,94624.06
2018-08-16T02:55:19.810Z,94625.74
2018-08-16T02:57:48.511Z,94627.58
2018-08-16T03:00:17.318Z,94629.45
2018-08-16T03:02:46.050Z,94631.94
2018-08-16T03:05:14.793Z,94628.94
2018-08-16T03:07:44.113Z,94626.38
2018-08-16T03:10:12.850Z,94625.50
2018-08-16T03:12:41.675Z,94625.42
2018-08-16T03:15:11.200Z,94625.70
2018-08-16T03:17:40.280Z,94620.44
2018-08-16T03:20:09.290Z,94619.19
2018-08-16T03:22:38.027Z,94626.77
2018-08-16T03:25:06.854Z,94630.72
2018-08-16T03:27:35.499Z,94631.80
2018-08-16T03:30:05.486Z,94637.95
2018-08-16T03:32:34.428Z,94638.97
2018-08-16T03:35:03.156Z,94636.02
2018-08-16T03:37:31.849Z,94646.22
2018-08-16T03:40:00.507Z,94646.44
2018-08-16T03:42:29.237Z,94653.20
2018-08-16T03:44:57.950Z,94660.51
2018-08-16T03:47:26.580Z,94663.46
2018-08-16T03:49:55.254Z,94662.75
2018-08-16T03:52:23.959Z,94662.84
2018-08-16T03:54:52.603Z,94664.31
2018-08-16T03:57:21.228Z,94662.56
2018-08-16T03:59:49.898Z,94670.17
2018-08-16T04:02:18.562Z,94672.36
2018-08-16T04:04:47.228Z,94672.52
2018-08-16T04:07:15.926Z,94670.64
2018-08-16T04:09:44.661Z,94664.09
2018-08-16T04:12:13.409Z,94670.68
2018-08-16T04:14:42.167Z,94664.87
2018-08-16T04:17:11.167Z,94674.45
2018-08-16T04:19:39.925Z,94676.72
2018-08-16T04:22:08.659Z,94672.44
2018-08-16T04:24:37.338Z,94676.02
2018-08-16T04:27:06.129Z,94668.30
2018-08-16T04:29:34.889Z,94670.71
2018-08-16T04:32:03.638Z,94677.96
2018-08-16T04:34:32.271Z,94683.67
2018-08-16T04:37:00.935Z,94675.48
2018-08-16T04:39:29.609Z,94680.30
2018-08-16T04:41:58.355Z,94678.71
2018-08-16T04:44:27.053Z,94684.47
2018-08-16T04:46:55.707Z,94684.88
2018-08-16T04:49:24.412Z,94684.27
2018-08-16T04:51:53.086Z,94684.15
2018-08-16T04:54:21.782Z,94678.28
2018-08-16T04:56:50.474Z,94676.98
2018-08-16T04:59:19.134Z,94687.51
2018-08-16T05:01:47.847Z,94686.81
2018-08-16T05:04:16.524Z,94681.33
2018-08-16T05:06:45.315Z,94687.13
2018-08-16T05:09:14.021Z,94687.33
2018-08-16T05:11:42.814Z,94696.52
2018-08-16T05:14:11.944Z,94695.98
2018-08-16T05:16:41.139Z,94699.28
2018-08-16T05:19:09.792Z,94698.95
2018-08-16T05:21:38.559Z,94689.85
2018-08-16T05:24:07.277Z,94693.14
2018-08-16T05:26:35.929Z,94686.02
2018-08-16T05:29:04.761Z,94696.26
2018-08-16T05:31:33.455Z,94698.77
2018-08-16T05:34:02.159Z,94696.03
2018-08-16T05:36:30.878Z,94698.53
2018-08-16T05:38:59.579Z,94698.12
2018-08-16T05:41:28.286Z,94704.05
2018-08-16T05:43:56.971Z,94695.06
2018-08-16T05:46:25.668Z,94693.94
2018-08-16T05:48:54.479Z,94692.32
2018-08-16T05:51:23.170Z,94696.70
2018-08-16T05:53:51.863Z,94691.84
2018-08-16T05:56:20.609Z,94699.14
2018-08-16T05:58:49.251Z,94704.66
2018-08-16T06:01:17.987Z,94702.52
2018-08-16T06:03:46.679Z,94708.73
2018-08-16T06:06:15.403Z,94705.47
2018-08-16T06:08:44.046Z,94702.03
2018-08-16T06:11:12.778Z,94695.42
2018-08-16T06:13:41.499Z,94689.92
2018-08-16T06:16:10.268Z,94694.09
2018-08-16T06:18:38.963Z,94694.31
2018-08-16T06:21:07.735Z,94690.84
2018-08-16T06:23:36.451Z,94692.75
2018-08-16T06:26:05.226Z,94690.36
2018-08-16T06:28:34.179Z,94691.48
2018-08-16T06:31:02.934Z,94685.80
2018-08-16T06:33:31.803Z,94679.02
2018-08-16T06:36:00.626Z,94679.75
2018-08-16T06:38:29.458Z,94677.68
2018-08-16T06:40:58.208Z,94679.73
2018-08-16T06:43:26.975Z,94683.40
2018-08-16T06:45:55.749Z,94689.55
2018-08-16T06:48:24.464Z,94682.89
2018-08-16T06:50:53.263Z,94677.14
2018-08-16T06:53:21.971Z,94677.41
2018-08-16T06:55:50.725Z,94677.62
2018-08-16T06:58:19.482Z,94680.11
2018-08-16T07:00:48.200Z,94678.77
2018-08-16T07:03:16.927Z,94686.67
2018-08-16T07:05:45.682Z,94688.52
2018-08-16T07:08:14.469Z,94684.12
2018-08-16T07:12:12.851Z,94688.45
2018-08-16T07:14:42.175Z,94685.20
2018-08-16T07:17:11.738Z,94682.23
2018-08-16T07:19:40.448Z,94682.17
2018-08-16T07:22:09.284Z,94678.63
2018-08-16T07:24:38.043Z,94685.76
2018-08-16T07:27:06.785Z,94682.64
2018-08-16T07:29:35.496Z,94683.20
2018-08-16T07:32:04.358Z,94685.57
2018-08-16T07:34:33.141Z,94681.03
2018-08-16T07:37:01.815Z,94683.98
2018-08-16T07:39:30.538Z,94680.92
2018-08-16T07:41:59.472Z,94668.38
2018-08-16T07:44:28.131Z,94668.76
2018-08-16T07:46:56.790Z,94671.16
2018-08-16T07:49:26.412Z,94671.52
2018-08-16T07:51:55.167Z,94667.61
2018-08-16T07:54:23.863Z,94673.17
2018-08-16T07:56:52.531Z,94677.81
2018-08-16T07:59:21.212Z,94670.45
2018-08-16T08:01:49.948Z,94672.08
2018-08-16T08:04:18.626Z,94668.03
2018-08-16T08:06:47.400Z,94668.88
2018-08-16T08:09:16.201Z,94662.86
2018-08-16T08:11:44.959Z,94657.61
2018-08-16T08:14:13.693Z,94658.73
2018-08-16T08:16:42.433Z,94659.05
2018-08-16T08:19:11.103Z,94661.73
2018-08-16T08:21:39.811Z,94661.05
2018-08-16T08:24:08.509Z,94660.57
2018-08-16T08:26:37.256Z,94656.70
2018-08-16T08:29:06.059Z,94650.61
2018-08-16T08:31:34.826Z,94648.27
2018-08-16T08:34:03.546Z,94648.55
2018-08-16T08:36:43.407Z,94641.14
2018-08-16T08:39:12.427Z,94637.16
2018-08-16T08:41:41.322Z,94641.67
2018-08-16T08:44:19.987Z,94650.48
2018-08-16T08:46:50.072Z,94643.09
2018-08-16T08:49:19.135Z,94646.53
2018-08-16T08:51:48.522Z,94645.73
2018-08-16T08:54:32.618Z,94650.25
2018-08-16T08:58:16.270Z,94644.38
2018-08-16T09:00:44.972Z,94641.48
2018-08-16T09:03:13.656Z,94641.95
2018-08-16T09:05:42.338Z,94635.27
2018-08-16T09:08:11.062Z,94637.34
2018-08-16T09:10:50.121Z,94635.51
2018-08-16T09:13:29.905Z,94634.42
2018-08-16T09:15:59.907Z,94636.80
2018-08-16T09:18:28.606Z,94637.58
2018-08-16T09:20:57.934Z,94633.81
2018-08-16T09:23:26.718Z,94627.56
2018-08-16T09:25:55.380Z,94630.97
2018-08-16T09:28:24.364Z,94643.97
2018-08-16T09:31:04.136Z,94635.08
2018-08-16T09:33:43.979Z,94639.75
2018-08-16T09:36:12.783Z,94630.28
2018-08-16T09:38:41.475Z,94627.04
2018-08-16T09:41:10.232Z,94623.62
2018-08-16T09:43:38.847Z,94621.89
2018-08-16T09:46:47.160Z,94624.67
2018-08-16T09:49:16.174Z,94624.39
2018-08-16T09:51:46.200Z,94629.28
2018-08-16T09:54:14.959Z,94631.81
2018-08-16T09:56:44.439Z,94623.98
2018-08-16T09:59:13.257Z,94625.41
2018-08-16T10:01:41.968Z,94617.83
2018-08-16T10:04:10.970Z,94614.64
2018-08-16T10:06:40.744Z,94608.73
2018-08-16T10:09:20.101Z,94609.45
2018-08-16T10:11:49.067Z,94601.84
2018-08-16T10:14:18.075Z,94604.25
2018-08-16T10:16:46.789Z,94602.90
2018-08-16T10:19:15.550Z,94607.70
2018-08-16T10:21:44.376Z,94610.91
2018-08-16T10:24:13.188Z,94604.91
2018-08-16T10:26:42.201Z,94603.51
2018-08-16T10:29:11.363Z,94598.80
2018-08-16T10:31:40.240Z,94594.65
2018-08-16T10:34:08.920Z,94589.86
2018-08-16T10:36:37.670Z,94586.89
2018-08-16T10:39:09.397Z,94587.73
2018-08-16T10:41:38.170Z,94582.34
2018-08-16T10:44:06.991Z,94578.48
2018-08-16T10:46:35.713Z,94581.84
2018-08-16T10:49:04.525Z,94580.88
2018-08-16T10:51:33.335Z,94581.67
2018-08-16T10:54:02.062Z,94579.28
2018-08-16T10:56:30.778Z,94581.53
2018-08-16T10:58:59.528Z,94575.02
2018-08-16T11:01:28.626Z,94572.11
2018-08-16T11:03:57.283Z,94572.81
2018-08-16T11:06:25.970Z,94573.56
2018-08-16T11:08:54.754Z,94574.19
2018-08-16T11:11:23.422Z,94574.88
2018-08-16T11:13:52.111Z,94573.69
2018-08-16T11:16:20.771Z,94569.41
2018-08-16T11:18:49.485Z,94566.02
2018-08-16T11:21:18.199Z,94567.72
2018-08-16T11:23:46.867Z,94572.25
2018-08-16T11:26:15.538Z,94558.86
2018-08-16T11:28:44.315Z,94562.50
2018-08-16T11:31:13.126Z,94562.08
2018-08-16T11:33:41.827Z,94559.84
2018-08-16T11:36:10.552Z,94553.02
2018-08-16T11:38:39.183Z,94553.79
2018-08-16T11:41:07.858Z,94541.69
2018-08-16T11:43:36.511Z,94548.59
2018-08-16T11:46:05.165Z,94545.72
2018-08-16T11:48:33.883Z,94562.06
2018-08-16T11:51:02.614Z,94559.92
2018-08-16T11:53:31.340Z,94550.46
2018-08-16T11:56:00.020Z,94549.13
2018-08-16T11:58:28.787Z,94544.22
2018-08-16T12:00:57.542Z,94557.05
2018-08-16T12:03:26.252Z,94545.90
2018-08-16T12:05:55.111Z,94554.34
2018-08-16T12:08:23.889Z,94550.11
2018-08-16T12:10:52.562Z,94542.97
2018-08-16T12:13:21.568Z,94549.02
2018-08-16T12:15:50.231Z,94546.92
2018-08-16T12:18:18.999Z,94542.86
2018-08-16T12:20:47.674Z,94541.66
2018-08-16T12:23:16.347Z,94535.08
2018-08-16T12:25:45.069Z,94535.80
2018-08-16T12:28:13.750Z,94534.92
2018-08-16T12:30:42.506Z,94542.03
2018-08-16T12:33:11.753Z,94532.94
2018-08-16T12:35:40.458Z,94532.50
2018-08-16T12:38:09.240Z,94531.77
2018-08-16T12:40:38.019Z,94530.69
2018-08-16T12:43:06.659Z,94526.89
2018-08-16T12:45:35.380Z,94527.76
2018-08-16T12:48:04.118Z,94524.84
2018-08-16T12:50:32.778Z,94529.83
2018-08-16T12:53:01.396Z,94523.29
2018-08-16T12:55:30.044Z,94515.15
2018-08-16T12:57:58.692Z,94512.07
2018-08-16T13:01:17.668Z,94513.03
2018-08-16T13:03:46.412Z,94512.22
2018-08-16T13:06:15.089Z,94506.49
2018-08-16T13:08:43.812Z,94502.51
2018-08-16T13:11:12.571Z,94504.17
2018-08-16T13:13:41.319Z,94499.52
2018-08-16T13:16:10.122Z,94501.64
2018-08-16T13:18:39.120Z,94500.81
2018-08-16T13:21:08.141Z,94501.12
2018-08-16T13:23:37.033Z,94506.34
2018-08-16T13:26:06.185Z,94504.05
2018-08-16T13:28:34.929Z,94496.89
2018-08-16T13:31:03.799Z,94498.52
2018-08-16T13:33:32.649Z,94491.75
2018-08-16T13:36:01.347Z,94492.61
2018-08-16T13:38:30.290Z,94490.87
2018-08-16T13:40:59.103Z,94493.81
2018-08-16T13:43:27.798Z,94490.70
2018-08-16T13:45:56.563Z,94491.79
2018-08-16T13:48:25.334Z,94489.47
2018-08-16T13:50:53.964Z,94484.16
2018-08-16T13:53:22.872Z,94484.94
2018-08-16T13:55:51.646Z,94477.42
2018-08-16T13:58:20.392Z,94482.91
2018-08-16T14:00:49.135Z,94476.64
2018-08-16T14:03:17.871Z,94475.09
2018-08-16T14:05:46.570Z,94467.52
2018-08-16T14:08:15.673Z,94476.83
2018-08-16T14:10:46.692Z,94486.84
2018-08-16T14:13:15.338Z,94481.63
2018-08-16T14:15:44.102Z,94486.11
2018-08-16T14:18:12.987Z,94477.48
2018-08-16T14:20:42.051Z,94477.15
2018-08-16T14:23:10.763Z,94480.02
2018-08-16T14:25:39.463Z,94478.98
2018-08-16T14:28:08.785Z,94477.84
2018-08-16T14:30:37.636Z,94482.58
2018-08-16T14:33:06.338Z,94480.61
2018-08-16T14:35:35.339Z,94479.21
2018-08-16T14:38:04.066Z,94484.28
2018-08-16T14:40:32.736Z,94486.02
2018-08-16T14:43:01.483Z,94488.11
2018-08-16T14:45:30.286Z,94483.12
2018-08-16T14:48:03.074Z,94484.20
2018-08-16T14:50:31.768Z,94482.92
2018-08-16T14:53:00.608Z,94485.55
2018-08-16T14:55:29.324Z,94495.41
2018-08-16T14:57:58.034Z,94486.20
2018-08-16T15:00:26.918Z,94492.14
2018-08-16T15:02:55.828Z,94484.00
2018-08-16T15:05:24.581Z,94485.28
2018-08-16T15:07:53.240Z,94492.28
2018-08-16T15:10:21.899Z,94489.17
2018-08-16T15:12:50.594Z,94488.02
2018-08-16T15:15:19.366Z,94483.98
2018-08-16T15:17:48.071Z,94484.36
2018-08-16T15:20:16.732Z,94483.55
2018-08-16T15:22:45.512Z,94486.33
2018-08-16T15:25:14.205Z,94491.20
2018-08-16T15:27:42.872Z,94484.55
2018-08-16T15:30:11.656Z,94485.78
2018-08-16T15:32:40.414Z,94481.50
2018-08-16T15:35:09.180Z,94474.10
2018-08-16T15:37:37.962Z,94475.58
2018-08-16T15:40:07.155Z,94474.83
2018-08-16T15:42:35.841Z,94475.42
2018-08-16T15:45:05.171Z,94477.58
2018-08-16T15:47:33.831Z,94480.08
2018-08-16T15:50:02.602Z,94475.58
2018-08-16T15:52:31.256Z,94473.78
2018-08-16T15:54:59.991Z,94470.33
2018-08-16T15:57:28.747Z,94467.84
2018-08-16T15:59:57.681Z,94469.84
2018-08-16T16:02:26.290Z,94465.69
2018-08-16T16:04:55.006Z,94472.84
2018-08-16T16:07:23.742Z,94475.13
2018-08-16T16:09:52.769Z,94474.09
2018-08-16T16:12:21.559Z,94474.07
2018-08-16T16:14:50.169Z,94481.43
2018-08-16T16:17:18.844Z,94473.84
2018-08-16T16:19:47.616Z,94482.13
2018-08-16T16:22:16.258Z,94483.28
2018-08-16T16:24:45.021Z,94483.23
2018-08-16T16:27:13.686Z,94481.22
2018-08-16T16:29:42.374Z,94482.89
2018-08-16T16:32:11.159Z,94479.41
2018-08-16T16:34:39.845Z,94481.16
2018-08-16T16:37:08.633Z,94484.77
2018-08-16T16:39:37.452Z,94482.23
2018-08-16T16:42:06.454Z,94483.33
2018-08-16T16:44:35.254Z,94487.34
2018-08-16T16:47:03.978Z,94492.30
2018-08-16T16:49:32.724Z,94492.35
2018-08-16T16:52:01.419Z,94490.09
2018-08-16T16:54:30.122Z,94492.08
2018-08-16T16:56:58.857Z,94490.74
2018-08-16T16:59:27.578Z,94494.80
2018-08-16T17:01:56.316Z,94497.48
2018-08-16T17:04:25.269Z,94499.86
2018-08-16T17:06:54.365Z,94498.22
2018-08-16T17:09:23.144Z,94500.92
2018-08-16T17:15:22.326Z,94496.23
2018-08-16T17:17:51.007Z,94499.66
2018-08-16T17:20:19.731Z,94493.94
2018-08-16T17:22:48.433Z,94500.38
2018-08-16T17:25:17.124Z,94502.83
2018-08-16T17:27:45.931Z,94505.39
2018-08-16T17:30:14.731Z,94510.76
2018-08-16T17:32:43.532Z,94515.66
2018-08-16T17:35:12.198Z,94513.63
2018-08-16T17:37:40.872Z,94515.27
2018-08-16T17:40:09.646Z,94520.67
2018-08-16T17:42:38.313Z,94515.66
2018-08-16T17:45:07.202Z,94517.84
2018-08-16T17:47:36.052Z,94519.52
2018-08-16T17:50:05.342Z,94518.82
2018-08-16T17:52:34.490Z,94521.48
2018-08-16T17:55:03.280Z,94524.94
2018-08-16T17:57:32.944Z,94527.41
2018-08-16T18:00:01.654Z,94526.91
2018-08-16T18:02:30.467Z,94534.11
2018-08-16T18:04:59.271Z,94530.39
2018-08-16T18:07:28.043Z,94530.91
2018-08-16T18:09:56.803Z,94537.58
2018-08-16T18:12:25.622Z,94541.07
2018-08-16T18:14:54.357Z,94542.70
2018-08-16T18:17:23.257Z,94545.36
2018-08-16T18:19:52.358Z,94550.16
2018-08-16T18:22:21.073Z,94548.03
2018-08-16T18:24:49.876Z,94556.27
2018-08-16T18:27:18.705Z,94555.53
2018-08-16T18:29:47.464Z,94560.59
2018-08-16T18:32:16.327Z,94563.25
2018-08-16T18:34:45.139Z,94559.48
2018-08-16T18:37:13.943Z,94567.73
2018-08-16T18:39:42.847Z,94570.67
2018-08-16T18:42:11.711Z,94571.73
2018-08-16T18:44:40.633Z,94570.39
2018-08-16T18:47:09.452Z,94572.51
2018-08-16T18:49:38.168Z,94568.01
2018-08-16T18:52:06.921Z,94573.05
2018-08-16T18:54:35.697Z,94577.03
2018-08-16T18:57:04.425Z,94574.64
2018-08-16T18:59:33.292Z,94577.31
2018-08-16T19:02:01.970Z,94577.53
2018-08-16T19:04:30.792Z,94578.62
2018-08-16T19:06:59.531Z,94571.66
2018-08-16T19:09:28.196Z,94580.05
2018-08-16T19:11:56.939Z,94579.84
2018-08-16T19:14:25.767Z,94585.19
2018-08-16T19:16:54.535Z,94579.88
2018-08-16T19:19:23.230Z,94577.45
2018-08-16T19:21:52.036Z,94579.03
2018-08-16T19:24:20.730Z,94581.61
2018-08-16T19:26:49.406Z,94583.09
2018-08-16T19:29:18.150Z,94574.78
2018-08-16T19:31:46.881Z,94573.27
2018-08-16T19:34:15.662Z,94577.26
2018-08-16T19:36:44.421Z,94574.50
2018-08-16T19:39:13.794Z,94574.12
2018-08-16T19:41:42.539Z,94571.65
2018-08-16T19:44:11.193Z,94580.33
2018-08-16T19:46:39.890Z,94576.30
2018-08-16T19:49:08.744Z,94569.55
2018-08-16T19:51:38.104Z,94578.09
2018-08-16T19:54:06.926Z,94572.59
2018-08-16T19:56:35.601Z,94581.84
2018-08-16T19:59:04.328Z,94573.20
2018-08-16T20:01:33.061Z,94575.83
2018-08-16T20:04:04.416Z,94577.50
2018-08-16T20:06:33.166Z,94570.31
2018-08-16T20:09:02.092Z,94578.91
2018-08-16T20:11:30.870Z,94585.35
2018-08-16T20:13:59.658Z,94581.18
2018-08-16T20:16:28.375Z,94586.91
2018-08-16T20:18:57.167Z,94582.59
2018-08-16T20:21:26.610Z,94582.09
2018-08-16T20:23:55.417Z,94582.84
2018-08-16T20:26:24.206Z,94587.63
2018-08-16T20:28:52.937Z,94585.45
2018-08-16T20:31:21.747Z,94595.09
2018-08-16T20:33:50.471Z,94592.95
2018-08-16T20:36:19.209Z,94596.97
2018-08-16T20:38:53.816Z,94595.34
2018-08-16T20:41:22.597Z,94592.20
2018-08-16T20:43:54.733Z,94594.55
2018-08-16T20:46:26.335Z,94592.23
2018-08-16T20:48:55.121Z,94598.51
2018-08-16T20:51:23.916Z,94602.83
2018-08-16T20:53:52.743Z,94594.70
2018-08-16T20:56:21.452Z,94595.50
2018-08-16T20:58:50.221Z,94602.51
2018-08-16T21:01:18.910Z,94600.97
2018-08-16T21:03:47.581Z,94600.47
2018-08-16T21:06:16.239Z,94605.53
2018-08-16T21:08:44.865Z,94606.47
2018-08-16T21:11:13.535Z,94601.22
2018-08-16T21:13:42.230Z,94599.38
2018-08-16T21:16:10.977Z,94601.81
2018-08-16T21:18:39.632Z,94600.75
2018-08-16T21:21:08.270Z,94599.41
2018-08-16T21:23:36.952Z,94602.23
2018-08-16T21:26:05.648Z,94597.14
2018-08-16T21:28:34.334Z,94600.30
2018-08-16T21:31:03.026Z,94604.48
2018-08-16T21:33:31.876Z,94604.48
2018-08-16T21:36:00.534Z,94606.58
2018-08-16T21:38:29.982Z,94615.50
2018-08-16T21:40:58.727Z,94613.09
2018-08-16T21:43:27.358Z,94612.50
2018-08-16T21:45:56.033Z,94619.66
2018-08-16T21:48:24.682Z,94619.66
2018-08-16T21:50:53.402Z,94618.63
2018-08-16T21:53:22.118Z,94615.20
2018-08-16T21:55:50.805Z,94612.83
2018-08-16T21:58:19.563Z,94610.16
2018-08-16T22:00:56.852Z,94607.73
2018-08-16T22:03:27.043Z,94607.95
2018-08-16T22:05:59.298Z,94610.59
2018-08-16T22:08:47.942Z,94607.36
2018-08-16T22:11:16.689Z,94606.77
2018-08-16T22:13:45.390Z,94603.05
2018-08-16T22:16:14.147Z,94612.05
2018-08-16T22:18:42.875Z,94603.78
2018-08-16T22:21:11.809Z,94603.20
2018-08-16T22:23:40.519Z,94605.03
2018-08-16T22:26:09.357Z,94611.66
2018-08-16T22:28:38.062Z,94613.23
2018-08-16T22:31:07.066Z,94610.73
2018-08-16T22:33:35.760Z,94611.72
2018-08-16T22:36:04.465Z,94614.19
2018-08-16T22:38:34.280Z,94616.40
2018-08-16T22:41:03.064Z,94618.88
2018-08-16T22:43:32.295Z,94617.93
2018-08-16T22:46:01.061Z,94615.86
2018-08-16T22:48:29.785Z,94614.79
2018-08-16T22:50:58.517Z,94610.00
2018-08-16T22:53:27.381Z,94611.07
2018-08-16T22:55:56.082Z,94611.03
2018-08-16T22:58:24.871Z,94619.03
2018-08-16T23:00:53.584Z,94611.95
2018-08-16T23:03:22.251Z,94614.58
2018-08-16T23:05:50.932Z,94618.51
2018-08-16T23:08:19.654Z,94617.43
2018-08-16T23:10:48.373Z,94618.51
2018-08-16T23:13:17.066Z,94619.20
2018-08-16T23:15:45.802Z,94620.03
2018-08-16T23:18:14.519Z,94615.31
2018-08-16T23:20:43.216Z,94618.91
2018-08-16T23:23:11.899Z,94613.91
2018-08-16T23:25:40.582Z,94610.73
2018-08-16T23:28:09.557Z,94606.77
2018-08-16T23:30:38.243Z,94603.13
2018-08-16T23:33:08.150Z,94597.60
2018-08-16T23:35:36.952Z,94598.14
2018-08-16T23:38:05.656Z,94603.88
2018-08-16T23:40:34.432Z,94603.30
2018-08-16T23:43:03.137Z,94603.84
2018-08-16T23:45:31.840Z,94604.30
2018-08-16T23:48:11.666Z,94610.81
2018-08-16T23:50:40.397Z,94609.23
2018-08-16T23:53:09.079Z,94617.58
2018-08-16T23:55:37.791Z,94620.70
2018-08-16T23:58:06.587Z,94619.91
